createdAt,value
2018-04-13T00:00:32.207Z,99.99
2018-04-13T00:01:32.238Z,99.99
2018-04-13T00:02:32.269Z,99.99
2018-04-13T00:03:32.299Z,99.99
2018-04-13T00:04:32.331Z,99.99
2018-04-13T00:05:32.362Z,99.99
2018-04-13T00:06:32.393Z,99.99
2018-04-13T00:07:32.425Z,99.99
2018-04-13T00:08:32.457Z,99.99
2018-04-13T00:09:32.488Z,99.99
2018-04-13T00:10:32.519Z,99.99
2018-04-13T00:11:32.551Z,99.99
2018-04-13T00:12:32.581Z,99.99
2018-04-13T00:13:32.614Z,99.99
2018-04-13T00:14:32.645Z,99.99
2018-04-13T00:15:32.675Z,99.99
2018-04-13T00:16:32.707Z,99.99
2018-04-13T00:17:32.737Z,99.99
2018-04-13T00:18:32.769Z,99.99
2018-04-13T00:19:32.800Z,99.99
2018-04-13T00:20:32.834Z,99.99
2018-04-13T00:21:32.862Z,99.99
2018-04-13T00:22:32.895Z,99.99
2018-04-13T00:23:32.926Z,99.99
2018-04-13T00:24:32.958Z,99.99
2018-04-13T00:25:32.988Z,99.99
2018-04-13T00:26:33.022Z,99.99
2018-04-13T00:27:33.050Z,99.99
2018-04-13T00:28:33.082Z,99.99
2018-04-13T00:29:33.114Z,99.99
2018-04-13T00:30:33.145Z,99.99
2018-04-13T00:31:33.175Z,99.99
2018-04-13T00:32:33.206Z,99.99
2018-04-13T00:33:33.239Z,99.99
2018-04-13T00:34:33.272Z,99.99
2018-04-13T00:35:33.301Z,99.99
2018-04-13T00:36:33.332Z,99.99
2018-04-13T00:37:33.362Z,99.99
2018-04-13T00:38:33.392Z,99.99
2018-04-13T00:39:33.425Z,99.99
2018-04-13T00:40:33.457Z,99.99
2018-04-13T00:41:33.487Z,99.99
2018-04-13T00:42:33.517Z,99.99
2018-04-13T00:43:33.548Z,99.99
2018-04-13T00:44:33.580Z,99.99
2018-04-13T00:45:33.612Z,99.99
2018-04-13T00:46:33.644Z,99.99
2018-04-13T00:47:33.675Z,99.99
2018-04-13T00:48:33.707Z,99.99
2018-04-13T00:49:33.736Z,99.99
2018-04-13T00:50:33.768Z,99.99
2018-04-13T00:51:33.798Z,99.99
2018-04-13T00:52:33.829Z,99.99
2018-04-13T00:53:33.868Z,99.99
2018-04-13T00:54:33.891Z,99.99
2018-04-13T00:55:33.924Z,99.99
2018-04-13T00:56:33.954Z,99.99
2018-04-13T00:57:33.987Z,99.99
2018-04-13T00:58:34.015Z,99.99
2018-04-13T00:59:34.048Z,99.99
2018-04-13T01:00:34.080Z,99.99
2018-04-13T01:01:34.110Z,99.99
2018-04-13T01:02:34.141Z,99.99
2018-04-13T01:03:34.171Z,99.99
2018-04-13T01:04:34.204Z,99.99
2018-04-13T01:05:34.239Z,99.99
2018-04-13T01:06:34.265Z,99.99
2018-04-13T01:07:34.297Z,99.99
2018-04-13T01:08:34.327Z,99.99
2018-04-13T01:09:34.361Z,99.99
2018-04-13T01:10:34.390Z,99.99
2018-04-13T01:11:34.420Z,99.99
2018-04-13T01:12:34.452Z,99.99
2018-04-13T01:13:34.484Z,99.99
2018-04-13T01:14:34.514Z,99.99
2018-04-13T01:15:34.544Z,99.99
2018-04-13T01:16:34.578Z,99.99
2018-04-13T01:17:34.607Z,99.99
2018-04-13T01:18:34.638Z,99.99
2018-04-13T01:19:34.668Z,99.99
2018-04-13T01:20:34.703Z,99.99
2018-04-13T01:21:34.732Z,99.99
2018-04-13T01:22:34.762Z,99.99
2018-04-13T01:23:34.793Z,99.99
2018-04-13T01:24:34.825Z,99.99
2018-04-13T01:25:34.856Z,99.99
2018-04-13T01:26:34.887Z,99.99
2018-04-13T01:27:34.919Z,99.99
2018-04-13T01:28:34.949Z,99.99
2018-04-13T01:29:34.980Z,99.99
2018-04-13T01:30:35.010Z,99.99
2018-04-13T01:31:35.041Z,99.99
2018-04-13T01:32:35.074Z,99.99
2018-04-13T01:33:35.103Z,99.99
2018-04-13T01:34:35.135Z,99.99
2018-04-13T01:35:35.164Z,99.99
2018-04-13T01:36:35.196Z,99.99
2018-04-13T01:37:35.228Z,99.99
2018-04-13T01:38:35.257Z,99.99
2018-04-13T01:39:35.290Z,99.99
2018-04-13T01:40:35.320Z,99.99
2018-04-13T01:41:35.351Z,99.99
2018-04-13T01:42:35.381Z,99.99
2018-04-13T01:43:35.411Z,99.99
2018-04-13T01:44:35.447Z,99.99
2018-04-13T01:45:35.474Z,99.99
2018-04-13T01:46:35.505Z,99.99
2018-04-13T01:47:35.535Z,99.99
2018-04-13T01:48:35.567Z,99.99
2018-04-13T01:49:35.597Z,99.99
2018-04-13T01:50:35.626Z,99.99
2018-04-13T01:51:35.659Z,99.99
2018-04-13T01:52:35.690Z,99.99
2018-04-13T01:53:35.720Z,99.99
2018-04-13T01:54:35.751Z,99.99
2018-04-13T01:55:35.780Z,99.99
2018-04-13T01:56:35.816Z,99.99
2018-04-13T01:57:35.848Z,99.99
2018-04-13T01:58:35.873Z,99.99
2018-04-13T01:59:35.905Z,99.99
2018-04-13T02:00:35.937Z,99.99
2018-04-13T02:01:35.967Z,99.99
2018-04-13T02:02:35.996Z,99.99
2018-04-13T02:03:36.027Z,99.99
2018-04-13T02:04:36.060Z,99.99
2018-04-13T02:05:36.090Z,99.99
2018-04-13T02:06:36.120Z,99.99
2018-04-13T02:07:36.152Z,99.99
2018-04-13T02:08:36.182Z,99.99
2018-04-13T02:09:36.214Z,99.99
2018-04-13T02:10:36.244Z,99.99
2018-04-13T02:11:36.273Z,99.99
2018-04-13T02:12:36.305Z,99.99
2018-04-13T02:13:36.336Z,99.99
2018-04-13T02:14:36.367Z,99.99
2018-04-13T02:15:36.397Z,99.99
2018-04-13T02:16:36.427Z,99.99
2018-04-13T02:17:36.460Z,99.99
2018-04-13T02:18:36.488Z,99.99
2018-04-13T02:19:36.521Z,99.99
2018-04-13T02:20:36.553Z,99.99
2018-04-13T02:21:36.584Z,99.99
2018-04-13T02:22:36.616Z,99.99
2018-04-13T02:23:36.643Z,99.99
2018-04-13T02:24:36.673Z,99.99
2018-04-13T02:25:36.708Z,99.99
2018-04-13T02:26:36.752Z,99.99
2018-04-13T02:27:36.801Z,99.99
2018-04-13T02:28:36.796Z,99.99
2018-04-13T02:29:36.827Z,99.99
2018-04-13T02:30:36.857Z,99.99
2018-04-13T02:31:36.887Z,99.99
2018-04-13T02:32:36.919Z,99.99
2018-04-13T02:33:36.959Z,99.99
2018-04-13T02:34:37.160Z,99.99
2018-04-13T02:35:37.011Z,99.99
2018-04-13T02:36:37.042Z,99.99
2018-04-13T02:37:37.073Z,99.99
2018-04-13T02:38:37.104Z,99.99
2018-04-13T02:39:37.132Z,99.99
2018-04-13T02:40:37.165Z,99.99
2018-04-13T02:41:37.195Z,99.99
2018-04-13T02:42:37.225Z,99.99
2018-04-13T02:43:37.260Z,99.99
2018-04-13T02:44:37.285Z,99.99
2018-04-13T02:45:37.317Z,99.99
2018-04-13T02:46:37.345Z,99.99
2018-04-13T02:47:37.378Z,99.99
2018-04-13T02:48:37.409Z,99.99
2018-04-13T02:49:37.439Z,99.99
2018-04-13T02:50:37.468Z,99.99
2018-04-13T02:51:37.499Z,99.99
2018-04-13T02:52:37.528Z,99.99
2018-04-13T02:53:37.564Z,99.99
2018-04-13T02:54:37.599Z,99.99
2018-04-13T02:55:37.620Z,99.99
2018-04-13T02:56:37.659Z,99.99
2018-04-13T02:57:37.681Z,99.99
2018-04-13T02:58:37.712Z,99.99
2018-04-13T02:59:37.740Z,99.99
2018-04-13T03:00:37.771Z,99.99
2018-04-13T03:01:37.801Z,99.99
2018-04-13T03:02:37.832Z,99.99
2018-04-13T03:03:37.862Z,99.99
2018-04-13T03:04:37.893Z,99.99
2018-04-13T03:05:37.921Z,99.99
2018-04-13T03:06:37.953Z,99.99
2018-04-13T03:07:38.051Z,99.99
2018-04-13T03:08:38.017Z,99.99
2018-04-13T03:09:38.044Z,99.99
2018-04-13T03:10:38.075Z,99.99
2018-04-13T03:11:38.109Z,99.99
2018-04-13T03:12:38.136Z,99.99
2018-04-13T03:13:38.167Z,99.99
2018-04-13T03:14:38.197Z,99.99
2018-04-13T03:15:38.226Z,99.99
2018-04-13T03:16:38.256Z,99.99
2018-04-13T03:17:38.288Z,99.99
2018-04-13T03:18:38.317Z,99.99
2018-04-13T03:19:38.346Z,99.99
2018-04-13T03:20:38.377Z,99.99
2018-04-13T03:21:38.407Z,99.99
2018-04-13T03:22:38.437Z,99.99
2018-04-13T03:23:38.467Z,99.99
2018-04-13T03:24:38.497Z,99.99
2018-04-13T03:25:38.528Z,99.99
2018-04-13T03:26:38.557Z,99.99
2018-04-13T03:27:38.586Z,99.99
2018-04-13T03:28:38.618Z,99.99
2018-04-13T03:29:38.647Z,99.99
2018-04-13T03:30:38.678Z,99.99
2018-04-13T03:31:38.707Z,99.99
2018-04-13T03:32:38.736Z,99.99
2018-04-13T03:33:38.769Z,99.99
2018-04-13T03:34:38.796Z,99.99
2018-04-13T03:35:38.828Z,99.99
2018-04-13T03:36:38.857Z,99.99
2018-04-13T03:37:38.888Z,99.99
2018-04-13T03:38:38.917Z,99.99
2018-04-13T03:39:38.946Z,99.99
2018-04-13T03:40:38.977Z,99.99
2018-04-13T03:41:39.007Z,99.99
2018-04-13T03:42:39.035Z,99.99
2018-04-13T03:43:39.065Z,99.99
2018-04-13T03:44:39.095Z,99.99
2018-04-13T03:45:39.127Z,99.99
2018-04-13T03:46:39.158Z,99.99
2018-04-13T03:47:39.186Z,99.99
2018-04-13T03:48:39.217Z,99.99
2018-04-13T03:49:39.250Z,99.99
2018-04-13T03:50:39.276Z,99.99
2018-04-13T03:51:39.305Z,99.99
2018-04-13T03:52:39.336Z,99.99
2018-04-13T03:53:39.366Z,99.99
2018-04-13T03:54:39.395Z,99.99
2018-04-13T03:55:39.431Z,99.99
2018-04-13T03:56:39.454Z,99.99
2018-04-13T03:57:39.486Z,99.99
2018-04-13T03:58:39.516Z,99.99
2018-04-13T03:59:39.545Z,99.99
2018-04-13T04:00:39.574Z,99.99
2018-04-13T04:01:39.604Z,99.99
2018-04-13T04:02:39.634Z,99.99
2018-04-13T04:03:39.664Z,99.99
2018-04-13T04:04:39.694Z,99.99
2018-04-13T04:05:39.724Z,99.99
2018-04-13T04:06:39.755Z,99.99
2018-04-13T04:07:39.782Z,99.99
2018-04-13T04:08:39.812Z,99.99
2018-04-13T04:09:39.843Z,99.99
2018-04-13T04:10:39.872Z,99.99
2018-04-13T04:11:39.902Z,99.99
2018-04-13T04:12:39.933Z,99.99
2018-04-13T04:13:39.962Z,99.99
2018-04-13T04:14:39.990Z,99.99
2018-04-13T04:15:40.021Z,99.99
2018-04-13T04:16:40.055Z,99.99
2018-04-13T04:17:40.081Z,99.99
2018-04-13T04:18:40.113Z,99.99
2018-04-13T04:19:40.140Z,99.99
2018-04-13T04:20:40.169Z,99.99
2018-04-13T04:21:40.207Z,99.99
2018-04-13T04:22:40.230Z,99.99
2018-04-13T04:23:40.259Z,99.99
2018-04-13T04:24:40.290Z,99.99
2018-04-13T04:25:40.319Z,99.99
2018-04-13T04:26:40.349Z,99.99
2018-04-13T04:27:40.377Z,99.99
2018-04-13T04:28:40.414Z,99.99
2018-04-13T04:29:40.437Z,99.99
2018-04-13T04:30:40.467Z,99.99
2018-04-13T04:31:40.498Z,99.99
2018-04-13T04:32:40.527Z,99.99
2018-04-13T04:33:40.557Z,99.99
2018-04-13T04:34:40.585Z,99.99
2018-04-13T04:35:40.617Z,99.99
2018-04-13T04:36:40.647Z,99.99
2018-04-13T04:37:40.677Z,99.99
2018-04-13T04:38:40.706Z,99.99
2018-04-13T04:39:40.735Z,99.99
2018-04-13T04:40:40.766Z,99.99
2018-04-13T04:41:40.795Z,99.99
2018-04-13T04:42:40.825Z,99.99
2018-04-13T04:43:40.855Z,99.99
2018-04-13T04:44:40.885Z,99.99
2018-04-13T04:45:40.914Z,99.99
2018-04-13T04:46:40.944Z,99.99
2018-04-13T04:47:40.974Z,99.99
2018-04-13T04:48:41.004Z,99.99
2018-04-13T04:49:41.034Z,99.99
2018-04-13T04:50:41.061Z,99.99
2018-04-13T04:51:41.093Z,99.99
2018-04-13T04:52:41.123Z,99.99
2018-04-13T04:53:41.154Z,99.99
2018-04-13T04:54:41.183Z,99.99
2018-04-13T04:55:41.213Z,99.99
2018-04-13T04:56:41.243Z,99.99
2018-04-13T04:57:41.273Z,99.99
2018-04-13T04:58:41.301Z,99.99
2018-04-13T04:59:41.349Z,99.99
2018-04-13T05:00:41.411Z,99.99
2018-04-13T05:01:41.395Z,99.99
2018-04-13T05:02:41.419Z,99.99
2018-04-13T05:03:41.458Z,99.99
2018-04-13T05:04:41.480Z,99.99
2018-04-13T05:05:41.510Z,99.99
2018-04-13T05:06:41.540Z,99.99
2018-04-13T05:07:41.573Z,99.99
2018-04-13T05:08:41.599Z,99.99
2018-04-13T05:09:41.628Z,99.99
2018-04-13T05:10:41.657Z,99.99
2018-04-13T05:11:41.688Z,99.99
2018-04-13T05:12:41.718Z,99.99
2018-04-13T05:13:41.748Z,99.99
2018-04-13T05:14:41.778Z,99.99
2018-04-13T05:15:41.807Z,99.99
2018-04-13T05:16:41.836Z,99.99
2018-04-13T05:17:41.866Z,99.99
2018-04-13T05:18:41.896Z,99.99
2018-04-13T05:19:41.926Z,99.99
2018-04-13T05:20:41.955Z,99.99
2018-04-13T05:21:41.986Z,99.99
2018-04-13T05:22:42.019Z,99.99
2018-04-13T05:23:42.045Z,99.99
2018-04-13T05:24:42.075Z,99.99
2018-04-13T05:25:42.105Z,99.99
2018-04-13T05:26:42.135Z,99.99
2018-04-13T05:27:42.165Z,99.99
2018-04-13T05:28:42.195Z,99.99
2018-04-13T05:29:42.225Z,99.99
2018-04-13T05:30:42.255Z,99.99
2018-04-13T05:31:42.285Z,99.99
2018-04-13T05:32:42.316Z,99.99
2018-04-13T05:33:42.345Z,99.99
2018-04-13T05:34:42.374Z,99.99
2018-04-13T05:35:42.404Z,99.99
2018-04-13T05:36:42.434Z,99.99
2018-04-13T05:37:42.463Z,99.99
2018-04-13T05:38:42.492Z,99.99
2018-04-13T05:39:42.529Z,99.99
2018-04-13T05:40:42.554Z,99.99
2018-04-13T05:41:42.585Z,99.99
2018-04-13T05:42:42.613Z,99.99
2018-04-13T05:43:42.645Z,99.99
2018-04-13T05:44:42.675Z,99.99
2018-04-13T05:45:42.705Z,99.99
2018-04-13T05:46:42.735Z,99.99
2018-04-13T05:47:42.764Z,99.99
2018-04-13T05:48:42.796Z,99.99
2018-04-13T05:49:42.826Z,99.99
2018-04-13T05:50:42.855Z,99.99
2018-04-13T05:51:42.885Z,99.99
2018-04-13T05:52:42.916Z,99.99
2018-04-13T05:53:42.954Z,99.99
2018-04-13T05:54:42.980Z,99.99
2018-04-13T05:55:43.013Z,99.99
2018-04-13T05:56:43.040Z,99.99
2018-04-13T05:57:43.070Z,99.99
2018-04-13T05:58:43.100Z,99.99
2018-04-13T05:59:43.134Z,99.99
2018-04-13T06:00:43.162Z,99.99
2018-04-13T06:01:43.196Z,99.99
2018-04-13T06:02:43.225Z,99.99
2018-04-13T06:03:43.256Z,99.99
2018-04-13T06:04:43.287Z,99.99
2018-04-13T06:05:43.317Z,99.99
2018-04-13T06:06:43.349Z,99.99
2018-04-13T06:07:43.378Z,99.99
2018-04-13T06:08:43.411Z,99.99
2018-04-13T06:09:43.442Z,99.99
2018-04-13T06:10:43.472Z,99.99
2018-04-13T06:11:43.504Z,99.99
2018-04-13T06:12:43.535Z,99.99
2018-04-13T06:13:43.566Z,99.99
2018-04-13T06:14:43.596Z,99.99
2018-04-13T06:15:43.628Z,99.99
2018-04-13T06:16:43.660Z,99.99
2018-04-13T06:17:43.695Z,99.99
2018-04-13T06:18:43.721Z,99.99
2018-04-13T06:19:43.754Z,99.99
2018-04-13T06:20:43.786Z,99.99
2018-04-13T06:21:43.816Z,99.99
2018-04-13T06:22:43.847Z,99.99
2018-04-13T06:23:43.884Z,99.99
2018-04-13T06:24:43.913Z,99.99
2018-04-13T06:25:43.942Z,99.99
2018-04-13T06:26:43.975Z,99.99
2018-04-13T06:27:44.008Z,99.99
2018-04-13T06:28:44.042Z,99.99
2018-04-13T06:29:44.070Z,99.99
2018-04-13T06:30:44.104Z,99.99
2018-04-13T06:31:44.133Z,99.99
2018-04-13T06:32:44.165Z,99.99
2018-04-13T06:33:44.198Z,99.99
2018-04-13T06:34:44.231Z,99.99
2018-04-13T06:35:44.261Z,99.99
2018-04-13T06:36:44.294Z,99.99
2018-04-13T06:37:44.326Z,99.99
2018-04-13T06:38:44.357Z,99.99
2018-04-13T06:39:44.392Z,99.99
2018-04-13T06:40:44.423Z,99.99
2018-04-13T06:41:44.454Z,99.99
2018-04-13T06:42:44.485Z,99.99
2018-04-13T06:43:44.542Z,99.99
2018-04-13T06:44:44.551Z,99.99
2018-04-13T06:45:44.582Z,99.99
2018-04-13T06:46:44.616Z,99.99
2018-04-13T06:47:44.648Z,99.99
2018-04-13T06:48:44.709Z,99.99
2018-04-13T06:49:44.713Z,99.99
2018-04-13T06:50:44.745Z,99.99
2018-04-13T06:51:44.778Z,99.99
2018-04-13T06:52:44.810Z,99.99
2018-04-13T06:53:44.843Z,99.99
2018-04-13T06:54:44.875Z,99.99
2018-04-13T06:55:44.907Z,99.99
2018-04-13T06:56:44.970Z,99.42
2018-04-13T06:57:44.974Z,98.37
2018-04-13T06:58:45.005Z,98.85
2018-04-13T06:59:45.039Z,97.71
2018-04-13T07:00:45.072Z,98.37
2018-04-13T07:01:45.105Z,98.61
2018-04-13T07:02:45.137Z,99.99
2018-04-13T07:03:45.177Z,99.99
2018-04-13T07:04:45.203Z,98.37
2018-04-13T07:05:45.237Z,97.18
2018-04-13T07:06:45.269Z,95.94
2018-04-13T07:07:45.301Z,95.46
2018-04-13T07:08:45.335Z,97.94
2018-04-13T07:09:45.369Z,97.66
2018-04-13T07:10:45.401Z,97.47
2018-04-13T07:11:45.434Z,96.98
2018-04-13T07:12:45.473Z,93.84
2018-04-13T07:13:45.503Z,94.12
2018-04-13T07:14:45.535Z,95.03
2018-04-13T07:15:45.567Z,94.36
2018-04-13T07:16:45.601Z,95.03
2018-04-13T07:17:45.635Z,97.32
2018-04-13T07:18:45.668Z,97.71
2018-04-13T07:19:45.706Z,98.75
2018-04-13T07:20:45.735Z,98.28
2018-04-13T07:21:45.770Z,96.80
2018-04-13T07:22:45.803Z,95.03
2018-04-13T07:23:45.841Z,95.70
2018-04-13T07:24:45.874Z,96.17
2018-04-13T07:25:45.909Z,95.12
2018-04-13T07:26:45.980Z,91.78
2018-04-13T07:27:45.971Z,90.64
2018-04-13T07:28:46.005Z,90.25
2018-04-13T07:29:46.040Z,89.87
2018-04-13T07:30:46.072Z,90.25
2018-04-13T07:31:46.107Z,90.25
2018-04-13T07:32:46.140Z,90.25
2018-04-13T07:33:46.175Z,90.54
2018-04-13T07:34:46.208Z,89.87
2018-04-13T07:35:46.242Z,89.30
2018-04-13T07:36:46.275Z,88.73
2018-04-13T07:37:46.309Z,88.73
2018-04-13T07:38:46.341Z,88.54
2018-04-13T07:39:46.376Z,88.15
2018-04-13T07:40:46.411Z,88.44
2018-04-13T07:41:46.444Z,88.06
2018-04-13T07:42:47.075Z,87.77
2018-04-13T07:43:46.511Z,87.68
2018-04-13T07:44:46.545Z,87.68
2018-04-13T07:45:46.578Z,87.01
2018-04-13T07:46:46.611Z,87.39
2018-04-13T07:47:46.645Z,87.01
2018-04-13T07:48:46.678Z,87.20
2018-04-13T07:49:46.714Z,87.01
2018-04-13T07:50:46.970Z,86.53
2018-04-13T07:51:46.780Z,86.53
2018-04-13T07:52:46.815Z,86.15
2018-04-13T07:53:46.849Z,85.77
2018-04-13T07:54:46.882Z,85.86
2018-04-13T07:55:46.915Z,86.15
2018-04-13T07:56:46.949Z,86.24
2018-04-13T07:57:46.983Z,85.52
2018-04-13T07:58:47.016Z,85.52
2018-04-13T07:59:47.051Z,84.85
2018-04-13T08:00:47.084Z,84.56
2018-04-13T08:01:47.118Z,84.47
2018-04-13T08:02:47.613Z,84.09
2018-04-13T08:03:47.184Z,83.70
2018-04-13T08:04:47.218Z,84.19
2018-04-13T08:05:47.253Z,83.51
2018-04-13T08:06:47.285Z,83.42
2018-04-13T08:07:47.320Z,83.80
2018-04-13T08:08:47.353Z,83.42
2018-04-13T08:09:47.387Z,83.33
2018-04-13T08:10:47.422Z,83.27
2018-04-13T08:11:47.454Z,83.42
2018-04-13T08:12:47.600Z,82.89
2018-04-13T08:13:47.523Z,82.41
2018-04-13T08:14:47.556Z,82.41
2018-04-13T08:15:47.591Z,82.22
2018-04-13T08:16:47.625Z,82.31
2018-04-13T08:17:47.659Z,82.22
2018-04-13T08:18:47.692Z,82.03
2018-04-13T08:19:47.727Z,81.45
2018-04-13T08:20:47.763Z,81.45
2018-04-13T08:21:47.796Z,81.55
2018-04-13T08:22:47.831Z,81.55
2018-04-13T08:23:47.864Z,80.92
2018-04-13T08:24:47.897Z,80.63
2018-04-13T08:25:47.934Z,79.96
2018-04-13T08:26:47.967Z,80.25
2018-04-13T08:27:48.000Z,79.58
2018-04-13T08:28:48.039Z,79.68
2018-04-13T08:29:48.115Z,79.33
2018-04-13T08:30:48.132Z,78.57
2018-04-13T08:31:48.140Z,78.38
2018-04-13T08:32:48.174Z,77.80
2018-04-13T08:33:48.209Z,77.61
2018-04-13T08:34:48.244Z,77.80
2018-04-13T08:35:48.280Z,78.28
2018-04-13T08:36:48.314Z,78.47
2018-04-13T08:37:48.351Z,78.19
2018-04-13T08:38:48.384Z,77.80
2018-04-13T08:39:48.420Z,78.53
2018-04-13T08:40:48.455Z,79.14
2018-04-13T08:41:48.490Z,78.95
2018-04-13T08:42:48.527Z,78.28
2018-04-13T08:43:48.560Z,78.19
2018-04-13T08:44:48.596Z,78.38
2018-04-13T08:45:48.630Z,78.28
2018-04-13T08:46:48.665Z,78.43
2018-04-13T08:47:48.699Z,78.63
2018-04-13T08:48:48.927Z,78.53
2018-04-13T08:49:48.778Z,78.72
2018-04-13T08:50:48.805Z,78.34
2018-04-13T08:51:48.842Z,78.91
2018-04-13T08:52:48.876Z,79.58
2018-04-13T08:53:48.913Z,80.16
2018-04-13T08:54:48.947Z,80.30
2018-04-13T08:55:49.011Z,79.87
2018-04-13T08:56:49.018Z,80.25
2018-04-13T08:57:49.085Z,79.96
2018-04-13T08:58:49.088Z,79.87
2018-04-13T08:59:49.122Z,80.11
2018-04-13T09:00:49.157Z,80.69
2018-04-13T09:01:49.194Z,80.88
2018-04-13T09:02:49.228Z,81.16
2018-04-13T09:03:49.264Z,81.45
2018-04-13T09:04:49.300Z,81.26
2018-04-13T09:05:49.333Z,81.36
2018-04-13T09:06:49.373Z,81.36
2018-04-13T09:07:49.407Z,81.40
2018-04-13T09:08:49.438Z,81.30
2018-04-13T09:09:49.474Z,81.70
2018-04-13T09:10:49.509Z,84.66
2018-04-13T09:11:49.547Z,84.56
2018-04-13T09:12:49.580Z,84.28
2018-04-13T09:13:49.616Z,83.99
2018-04-13T09:14:49.648Z,84.23
2018-04-13T09:15:49.684Z,84.09
2018-04-13T09:16:49.719Z,84.09
2018-04-13T09:17:49.753Z,83.94
2018-04-13T09:18:49.789Z,83.94
2018-04-13T09:19:49.822Z,83.65
2018-04-13T09:20:49.942Z,83.46
2018-04-13T09:21:49.894Z,83.27
2018-04-13T09:22:49.927Z,83.12
2018-04-13T09:23:49.963Z,83.22
2018-04-13T09:24:49.999Z,83.37
2018-04-13T09:25:50.033Z,83.27
2018-04-13T09:26:50.068Z,83.65
2018-04-13T09:27:50.105Z,83.22
2018-04-13T09:28:50.138Z,83.12
2018-04-13T09:29:50.181Z,83.84
2018-04-13T09:30:50.207Z,84.32
2018-04-13T09:31:50.242Z,84.32
2018-04-13T09:32:50.574Z,84.70
2018-04-13T09:33:50.310Z,84.13
2018-04-13T09:34:50.346Z,83.84
2018-04-13T09:35:50.409Z,84.32
2018-04-13T09:36:50.419Z,84.99
2018-04-13T09:37:50.450Z,85.75
2018-04-13T09:38:50.484Z,85.85
2018-04-13T09:39:50.519Z,86.43
2018-04-13T09:40:50.555Z,85.47
2018-04-13T09:41:50.591Z,86.14
2018-04-13T09:42:50.623Z,86.52
2018-04-13T09:43:50.659Z,86.52
2018-04-13T09:44:50.694Z,86.47
2018-04-13T09:45:50.730Z,87.62
2018-04-13T09:46:50.763Z,88.01
2018-04-13T09:47:50.799Z,88.29
2018-04-13T09:48:50.833Z,88.29
2018-04-13T09:49:50.871Z,88.48
2018-04-13T09:50:50.900Z,89.15
2018-04-13T09:51:50.936Z,88.77
2018-04-13T09:52:50.970Z,89.49
2018-04-13T09:53:51.006Z,90.06
2018-04-13T09:54:51.039Z,90.06
2018-04-13T09:55:51.075Z,90.83
2018-04-13T09:56:51.107Z,90.73
2018-04-13T09:57:51.146Z,90.16
2018-04-13T09:58:51.175Z,90.54
2018-04-13T09:59:51.212Z,90.83
2018-04-13T10:00:51.245Z,90.83
2018-04-13T10:01:51.279Z,91.40
2018-04-13T10:02:51.311Z,91.21
2018-04-13T10:03:51.346Z,91.40
2018-04-13T10:04:51.381Z,91.11
2018-04-13T10:05:51.415Z,91.78
2018-04-13T10:06:51.446Z,91.78
2018-04-13T10:07:51.482Z,91.88
2018-04-13T10:08:51.535Z,91.50
2018-04-13T10:09:51.550Z,91.88
2018-04-13T10:10:51.585Z,92.16
2018-04-13T10:11:51.616Z,92.60
2018-04-13T10:12:51.654Z,93.65
2018-04-13T10:13:51.682Z,94.70
2018-04-13T10:14:51.716Z,94.60
2018-04-13T10:15:51.749Z,95.08
2018-04-13T10:16:51.783Z,94.79
2018-04-13T10:17:51.818Z,94.89
2018-04-13T10:18:51.850Z,95.75
2018-04-13T10:19:51.883Z,95.75
2018-04-13T10:20:51.918Z,97.08
2018-04-13T10:21:51.950Z,97.18
2018-04-13T10:22:51.986Z,97.75
2018-04-13T10:23:52.017Z,97.80
2018-04-13T10:24:52.051Z,98.18
2018-04-13T10:25:52.083Z,99.80
2018-04-13T10:26:52.149Z,99.52
2018-04-13T10:27:52.149Z,99.52
2018-04-13T10:28:52.185Z,99.99
2018-04-13T10:29:52.216Z,99.18
2018-04-13T10:30:52.248Z,99.95
2018-04-13T10:31:52.283Z,99.99
2018-04-13T10:32:52.315Z,99.99
2018-04-13T10:33:52.348Z,99.95
2018-04-13T10:34:52.382Z,99.99
2018-04-13T10:35:52.413Z,99.99
2018-04-13T10:36:52.446Z,99.99
2018-04-13T10:37:52.486Z,99.99
2018-04-13T10:38:52.513Z,99.99
2018-04-13T10:39:52.546Z,99.99
2018-04-13T10:40:52.578Z,99.99
2018-04-13T10:41:52.612Z,99.99
2018-04-13T10:42:52.643Z,99.99
2018-04-13T10:43:52.676Z,99.99
2018-04-13T10:44:52.710Z,99.99
2018-04-13T10:45:52.743Z,99.99
2018-04-13T10:46:52.776Z,99.99
2018-04-13T10:47:52.807Z,99.99
2018-04-13T10:48:52.840Z,99.99
2018-04-13T10:49:52.874Z,99.99
2018-04-13T10:50:52.906Z,99.99
2018-04-13T10:51:52.938Z,99.99
2018-04-13T10:52:52.972Z,99.99
2018-04-13T10:53:53.005Z,99.99
2018-04-13T10:54:53.038Z,99.99
2018-04-13T10:55:53.070Z,99.99
2018-04-13T10:56:53.103Z,99.99
2018-04-13T10:57:53.135Z,99.99
2018-04-13T10:58:53.168Z,99.99
2018-04-13T10:59:53.201Z,99.99
2018-04-13T11:00:53.234Z,99.99
2018-04-13T11:01:53.268Z,99.99
2018-04-13T11:02:53.299Z,99.99
2018-04-13T11:03:53.332Z,99.99
2018-04-13T11:04:53.366Z,99.99
2018-04-13T11:05:53.399Z,99.99
2018-04-13T11:06:53.431Z,98.94
2018-04-13T11:07:53.464Z,97.42
2018-04-13T11:08:53.498Z,96.80
2018-04-13T11:09:53.531Z,96.03
2018-04-13T11:10:53.565Z,95.46
2018-04-13T11:11:53.600Z,95.65
2018-04-13T11:12:53.631Z,95.22
2018-04-13T11:13:53.665Z,94.84
2018-04-13T11:14:53.699Z,94.93
2018-04-13T11:15:53.732Z,94.26
2018-04-13T11:16:53.770Z,92.69
2018-04-13T11:17:53.801Z,92.78
2018-04-13T11:18:53.836Z,91.53
2018-04-13T11:19:53.868Z,90.87
2018-04-13T11:20:53.902Z,90.34
2018-04-13T11:21:53.941Z,90.34
2018-04-13T11:22:53.970Z,89.43
2018-04-13T11:23:54.005Z,87.65
2018-04-13T11:24:54.093Z,87.08
2018-04-13T11:25:54.075Z,86.88
2018-04-13T11:26:54.109Z,86.02
2018-04-13T11:27:54.145Z,84.20
2018-04-13T11:28:54.180Z,84.34
2018-04-13T11:29:54.215Z,83.86
2018-04-13T11:30:54.250Z,83.18
2018-04-13T11:31:54.287Z,80.40
2018-04-13T11:32:54.321Z,78.23
2018-04-13T11:33:54.360Z,77.59
2018-04-13T11:34:54.395Z,77.46
2018-04-13T11:35:54.432Z,76.57
2018-04-13T11:36:54.470Z,75.32
2018-04-13T11:37:54.505Z,74.94
2018-04-13T11:38:54.542Z,74.02
2018-04-13T11:39:54.579Z,73.83
2018-04-13T11:40:54.618Z,71.94
2018-04-13T11:41:54.656Z,71.08
2018-04-13T11:42:54.694Z,71.84
2018-04-13T11:43:54.731Z,71.11
2018-04-13T11:44:54.770Z,70.30
2018-04-13T11:45:54.809Z,71.17
2018-04-13T11:46:54.848Z,71.52
2018-04-13T11:47:54.887Z,71.65
2018-04-13T11:48:54.928Z,69.92
2018-04-13T11:49:54.966Z,70.72
2018-04-13T11:50:55.006Z,70.24
2018-04-13T11:51:55.046Z,68.99
2018-04-13T11:52:55.087Z,69.28
2018-04-13T11:53:55.127Z,68.60
2018-04-13T11:54:55.165Z,69.41
2018-04-13T11:55:55.208Z,69.89
2018-04-13T11:56:55.248Z,70.43
2018-04-13T11:57:55.288Z,72.00
2018-04-13T11:58:55.328Z,73.41
2018-04-13T11:59:55.368Z,73.44
2018-04-13T12:00:55.409Z,72.29
2018-04-13T12:01:55.450Z,72.58
2018-04-13T12:02:55.490Z,73.44
2018-04-13T12:03:55.556Z,73.54
2018-04-13T12:04:55.607Z,73.28
2018-04-13T12:05:55.635Z,71.75
2018-04-13T12:06:55.685Z,71.46
2018-04-13T12:07:55.727Z,72.23
2018-04-13T12:08:55.765Z,72.23
2018-04-13T12:09:55.811Z,71.75
2018-04-13T12:10:55.846Z,70.62
2018-04-13T12:11:55.886Z,70.47
2018-04-13T12:12:55.929Z,69.70
2018-04-13T12:13:55.942Z,69.06
2018-04-13T12:14:56.015Z,67.52
2018-04-13T12:15:56.054Z,66.11
2018-04-13T12:16:56.087Z,66.46
2018-04-13T12:17:56.137Z,67.81
2018-04-13T12:18:56.168Z,66.78
2018-04-13T12:19:56.191Z,65.81
2018-04-13T12:20:56.254Z,65.72
2018-04-13T12:21:56.297Z,64.59
2018-04-13T12:22:56.315Z,64.11
2018-04-13T12:23:56.381Z,63.18
2018-04-13T12:24:56.419Z,61.77
2018-04-13T12:25:56.440Z,61.19
2018-04-13T12:26:56.482Z,61.35
2018-04-13T12:27:56.525Z,61.74
2018-04-13T12:28:56.567Z,63.47
2018-04-13T12:29:56.607Z,63.40
2018-04-13T12:30:56.648Z,62.44
2018-04-13T12:31:56.692Z,61.35
2018-04-13T12:32:56.733Z,61.96
2018-04-13T12:33:56.777Z,61.10
2018-04-13T12:34:56.817Z,61.35
2018-04-13T12:35:56.861Z,61.45
2018-04-13T12:36:56.903Z,62.41
2018-04-13T12:37:56.946Z,61.90
2018-04-13T12:38:56.987Z,61.74
2018-04-13T12:39:57.030Z,61.54
2018-04-13T12:40:57.078Z,60.51
2018-04-13T12:41:57.113Z,60.31
2018-04-13T12:42:57.179Z,57.67
2018-04-13T12:43:57.200Z,57.09
2018-04-13T12:44:57.262Z,56.22
2018-04-13T12:45:57.315Z,55.87
2018-04-13T12:46:57.354Z,56.29
2018-04-13T12:47:57.399Z,54.39
2018-04-13T12:48:57.492Z,55.52
2018-04-13T12:49:57.477Z,58.12
2018-04-13T12:50:57.525Z,55.26
2018-04-13T12:51:57.578Z,53.88
2018-04-13T12:52:57.665Z,54.29